createdAt,value
2018-02-22T00:02:17.691Z,5.90
2018-02-22T00:04:45.350Z,6.97
2018-02-22T00:07:13.012Z,7.07
2018-02-22T00:09:40.652Z,5.47
2018-02-22T00:12:09.387Z,5.90
2018-02-22T00:14:37.053Z,7.30
2018-02-22T00:17:04.741Z,5.60
2018-02-22T00:19:32.419Z,7.22
2018-02-22T00:22:00.132Z,5.78
2018-02-22T00:24:28.561Z,6.78
2018-02-22T00:26:56.241Z,7.28
2018-02-22T00:29:23.880Z,5.90
2018-02-22T00:31:51.509Z,5.97
2018-02-22T00:34:19.914Z,5.75
2018-02-22T00:36:47.596Z,5.82
2018-02-22T00:39:15.222Z,6.05
2018-02-22T00:41:43.647Z,5.95
2018-02-22T00:44:11.604Z,6.78
2018-02-22T00:46:39.280Z,5.22
2018-02-22T00:49:06.935Z,7.03
2018-02-22T00:51:34.645Z,6.12
2018-02-22T00:54:02.315Z,6.45
2018-02-22T00:56:30.739Z,6.10
2018-02-22T00:58:59.124Z,5.73
2018-02-22T01:01:26.806Z,6.12
2018-02-22T01:03:54.454Z,7.20
2018-02-22T01:06:22.148Z,6.28
2018-02-22T01:08:49.775Z,6.95
2018-02-22T01:11:18.189Z,6.07
2018-02-22T01:13:45.852Z,6.78
2018-02-22T01:16:13.502Z,5.43
2018-02-22T01:18:41.931Z,6.22
2018-02-22T01:21:09.542Z,6.27
2018-02-22T01:23:37.932Z,5.70
2018-02-22T01:26:06.362Z,6.72
2018-02-22T01:28:34.006Z,6.00
2018-02-22T01:31:01.668Z,7.53
2018-02-22T01:33:29.302Z,5.80
2018-02-22T01:35:56.983Z,5.97
2018-02-22T01:38:26.031Z,6.25
2018-02-22T01:40:54.024Z,6.60
2018-02-22T01:43:22.453Z,6.67
2018-02-22T01:45:50.097Z,6.10
2018-02-22T01:48:17.782Z,7.55
2018-02-22T01:50:47.139Z,7.87
2018-02-22T01:53:14.790Z,6.32
2018-02-22T01:55:42.701Z,6.00
2018-02-22T01:58:10.373Z,6.50
2018-02-22T02:00:38.028Z,6.37
2018-02-22T02:03:05.693Z,6.07
2018-02-22T02:05:33.310Z,8.02
2018-02-22T02:08:01.241Z,7.07
2018-02-22T02:10:28.930Z,7.90
2018-02-22T02:12:57.343Z,6.07
2018-02-22T02:15:25.010Z,6.57
2018-02-22T02:17:52.966Z,6.22
2018-02-22T02:20:20.600Z,6.65
2018-02-22T02:22:48.236Z,7.97
2018-02-22T02:25:16.544Z,7.22
2018-02-22T02:27:49.895Z,7.45
2018-02-22T02:30:18.342Z,7.80
2018-02-22T02:32:46.764Z,6.72
2018-02-22T02:35:14.442Z,6.50
2018-02-22T02:37:42.143Z,7.12
2018-02-22T02:40:09.806Z,6.55
2018-02-22T02:42:37.441Z,6.15
2018-02-22T02:45:05.091Z,8.02
2018-02-22T02:47:32.743Z,5.97
2018-02-22T02:50:01.172Z,7.95
2018-02-22T02:52:28.863Z,7.65
2018-02-22T02:54:56.537Z,6.68
2018-02-22T02:57:24.257Z,6.85
2018-02-22T02:59:51.902Z,7.60
2018-02-22T03:02:19.582Z,6.37
2018-02-22T03:04:47.266Z,7.75
2018-02-22T03:07:14.909Z,6.47
2018-02-22T03:09:42.572Z,7.62
2018-02-22T03:12:10.209Z,8.55
2018-02-22T03:14:37.876Z,6.60
2018-02-22T03:17:05.911Z,7.07
2018-02-22T03:19:33.544Z,8.15
2018-02-22T03:22:02.067Z,9.00
2018-02-22T03:24:29.707Z,7.60
2018-02-22T03:26:57.356Z,7.32
2018-02-22T03:29:25.803Z,7.47
2018-02-22T03:31:53.429Z,6.50
2018-02-22T03:34:21.068Z,8.35
2018-02-22T03:36:49.502Z,8.90
2018-02-22T03:39:17.194Z,8.05
2018-02-22T03:41:44.859Z,8.82
2018-02-22T03:44:12.493Z,6.97
2018-02-22T03:46:40.166Z,8.73
2018-02-22T03:49:07.832Z,8.07
2018-02-22T03:51:35.496Z,6.75
2018-02-22T03:54:03.169Z,7.35
2018-02-22T03:56:30.830Z,7.28
2018-02-22T03:58:58.486Z,8.50
2018-02-22T04:01:26.153Z,7.68
2018-02-22T04:03:53.812Z,7.53
2018-02-22T04:06:21.482Z,7.15
2018-02-22T04:08:49.186Z,7.70
2018-02-22T04:11:16.821Z,6.82
2018-02-22T04:13:44.466Z,7.70
2018-02-22T04:16:12.913Z,7.35
2018-02-22T04:18:40.590Z,8.63
2018-02-22T04:21:08.247Z,8.30
2018-02-22T04:23:35.923Z,6.85
2018-02-22T04:26:03.599Z,7.37
2018-02-22T04:28:32.041Z,8.20
2018-02-22T04:30:59.738Z,7.85
2018-02-22T04:33:28.158Z,8.05
2018-02-22T04:35:55.830Z,7.62
2018-02-22T04:38:23.483Z,8.35
2018-02-22T04:40:51.121Z,9.70
2018-02-22T04:43:18.768Z,9.75
2018-02-22T04:45:46.441Z,8.20
2018-02-22T04:48:14.927Z,9.40
2018-02-22T04:50:42.615Z,8.05
2018-02-22T04:53:10.943Z,8.82
2018-02-22T04:55:38.578Z,7.45
2018-02-22T04:58:06.960Z,7.97
2018-02-22T05:00:35.497Z,7.53
2018-02-22T05:03:03.176Z,8.20
2018-02-22T05:05:30.835Z,8.48
2018-02-22T05:07:58.523Z,8.25
2018-02-22T05:10:26.501Z,8.77
2018-02-22T05:12:54.137Z,7.50
2018-02-22T05:15:21.813Z,8.33
2018-02-22T05:17:49.451Z,7.97
2018-02-22T05:20:17.113Z,6.90
2018-02-22T05:22:44.832Z,9.38
2018-02-22T05:25:12.523Z,8.40
2018-02-22T05:27:40.204Z,9.00
2018-02-22T05:30:08.650Z,7.93
2018-02-22T05:32:36.317Z,9.45
2018-02-22T05:35:04.775Z,8.82
2018-02-22T05:37:33.168Z,8.67
2018-02-22T05:40:02.778Z,7.95
2018-02-22T05:42:30.584Z,8.48
2018-02-22T05:44:58.288Z,9.40
2018-02-22T05:47:25.945Z,8.37
2018-02-22T05:49:54.530Z,8.77
2018-02-22T05:52:22.193Z,8.23
2018-02-22T05:54:50.590Z,8.60
2018-02-22T05:57:18.261Z,8.02
2018-02-22T05:59:46.000Z,8.05
2018-02-22T06:02:14.465Z,8.13
2018-02-22T06:04:43.221Z,9.98
2018-02-22T06:07:10.899Z,9.10
2018-02-22T06:09:38.542Z,8.40
2018-02-22T06:12:06.234Z,8.30
2018-02-22T06:14:35.775Z,6.77
2018-02-22T06:17:03.430Z,7.45
2018-02-22T06:19:31.125Z,9.23
2018-02-22T06:21:59.538Z,7.87
2018-02-22T06:24:27.282Z,6.60
2018-02-22T06:26:54.986Z,8.30
2018-02-22T06:29:22.655Z,7.80
2018-02-22T06:31:50.481Z,7.00
2018-02-22T06:34:18.913Z,7.37
2018-02-22T06:36:47.355Z,8.32
2018-02-22T06:39:15.752Z,6.70
2018-02-22T06:41:43.412Z,10.77
2018-02-22T06:44:11.825Z,8.60
2018-02-22T06:46:40.225Z,8.77
2018-02-22T06:49:07.920Z,9.03
2018-02-22T06:51:35.699Z,9.38
2018-02-22T06:54:03.375Z,8.85
2018-02-22T06:56:31.022Z,7.90
2018-02-22T06:58:58.976Z,10.35
2018-02-22T07:01:27.952Z,8.13
2018-02-22T07:03:55.595Z,8.75
2018-02-22T07:06:24.046Z,11.27
2018-02-22T07:08:51.729Z,9.77
2018-02-22T07:11:20.144Z,8.98
2018-02-22T07:13:47.889Z,8.48
2018-02-22T07:16:16.788Z,8.73
2018-02-22T07:18:45.210Z,10.13
2018-02-22T07:21:12.897Z,11.27
2018-02-22T07:23:41.382Z,9.63
2018-02-22T07:26:09.048Z,9.77
2018-02-22T07:28:36.702Z,8.57
2018-02-22T07:31:04.316Z,9.20
2018-02-22T07:33:33.014Z,10.68
2018-02-22T07:36:01.413Z,11.55
2018-02-22T07:38:29.086Z,9.88
2018-02-22T07:40:56.730Z,10.73
2018-02-22T07:43:25.143Z,8.18
2018-02-22T07:45:52.871Z,10.20
2018-02-22T07:48:21.350Z,10.45
2018-02-22T07:50:49.816Z,9.48
2018-02-22T07:53:17.488Z,9.73
2018-02-22T07:55:45.436Z,8.98
2018-02-22T07:58:13.716Z,8.98
2018-02-22T08:00:41.488Z,9.70
2018-02-22T08:03:09.175Z,10.52
2018-02-22T08:05:36.870Z,8.77
2018-02-22T08:08:05.310Z,8.93
2018-02-22T08:10:32.946Z,10.15
2018-02-22T08:13:00.640Z,10.98
2018-02-22T08:15:28.261Z,9.60
2018-02-22T08:17:56.748Z,9.95
2018-02-22T08:20:25.192Z,8.45
2018-02-22T08:22:52.830Z,9.70
2018-02-22T08:25:21.128Z,12.45
2018-02-22T08:27:48.777Z,11.05
2018-02-22T08:30:16.448Z,11.38
2018-02-22T08:32:44.114Z,10.40
2018-02-22T08:35:11.774Z,11.60
2018-02-22T08:37:39.438Z,12.32
2018-02-22T08:40:07.185Z,11.38
2018-02-22T08:42:35.642Z,12.30
2018-02-22T08:45:03.300Z,11.88
2018-02-22T08:47:31.013Z,11.90
2018-02-22T08:49:59.413Z,11.12
2018-02-22T08:52:27.372Z,10.35
2018-02-22T08:54:55.790Z,10.73
2018-02-22T08:57:23.436Z,10.77
2018-02-22T08:59:51.109Z,12.37
2018-02-22T09:02:18.772Z,11.02
2018-02-22T09:04:46.438Z,12.73
2018-02-22T09:07:14.094Z,11.85
2018-02-22T09:09:41.779Z,10.98
2018-02-22T09:12:09.468Z,12.45
2018-02-22T09:14:37.099Z,12.30
2018-02-22T09:17:05.581Z,12.55
2018-02-22T09:19:33.214Z,11.90
2018-02-22T09:22:00.882Z,10.38
2018-02-22T09:24:28.545Z,11.43
2018-02-22T09:26:56.294Z,10.82
2018-02-22T09:29:23.982Z,11.05
2018-02-22T09:31:51.648Z,12.13
2018-02-22T09:34:19.327Z,12.50
2018-02-22T09:36:46.941Z,11.68
2018-02-22T09:39:15.341Z,11.20
2018-02-22T09:41:43.018Z,10.10
2018-02-22T09:44:10.661Z,9.75
2018-02-22T09:46:38.372Z,10.32
2018-02-22T09:49:06.820Z,11.18
2018-02-22T09:51:34.497Z,9.25
2018-02-22T09:54:02.141Z,10.87
2018-02-22T09:56:29.827Z,8.77
2018-02-22T09:58:58.289Z,8.73
2018-02-22T10:01:25.982Z,9.63
2018-02-22T10:03:53.687Z,9.13
2018-02-22T10:06:21.365Z,10.10
2018-02-22T10:08:49.025Z,9.80
2018-02-22T10:11:17.468Z,9.13
2018-02-22T10:13:45.912Z,7.95
2018-02-22T10:16:14.353Z,10.98
2018-02-22T10:18:42.010Z,11.25
2018-02-22T10:21:09.727Z,9.15
2018-02-22T10:23:38.127Z,9.30
2018-02-22T10:26:05.814Z,8.32
2018-02-22T10:28:33.453Z,9.68
2018-02-22T10:31:01.875Z,8.45
2018-02-22T10:33:29.547Z,9.32
2018-02-22T10:35:57.539Z,8.15
2018-02-22T10:38:25.197Z,8.95
2018-02-22T10:40:52.914Z,8.07
2018-02-22T10:43:21.315Z,9.38
2018-02-22T10:45:48.974Z,8.80
2018-02-22T10:48:16.622Z,8.35
2018-02-22T10:50:44.261Z,8.37
2018-02-22T10:53:11.932Z,8.15
2018-02-22T10:55:39.605Z,10.05
2018-02-22T10:58:08.015Z,9.07
2018-02-22T11:00:42.048Z,8.73
2018-02-22T11:03:09.676Z,9.00
2018-02-22T11:05:38.068Z,9.23
2018-02-22T11:08:06.589Z,8.35
2018-02-22T11:10:34.227Z,7.43
2018-02-22T11:13:02.610Z,7.40
2018-02-22T11:15:31.092Z,8.30
2018-02-22T11:17:59.493Z,7.57
2018-02-22T11:20:27.560Z,8.20
2018-02-22T11:22:55.674Z,8.70
2018-02-22T11:25:23.298Z,8.35
2018-02-22T11:27:51.753Z,9.65
2018-02-22T11:30:19.390Z,8.10
2018-02-22T11:32:47.087Z,8.65
2018-02-22T11:35:15.561Z,9.20
2018-02-22T11:37:43.267Z,8.38
2018-02-22T11:40:11.667Z,8.52
2018-02-22T11:42:39.356Z,8.27
2018-02-22T11:45:07.043Z,9.02
2018-02-22T11:47:34.683Z,7.03
2018-02-22T11:50:02.365Z,7.95
2018-02-22T11:52:30.134Z,7.00
2018-02-22T11:54:57.800Z,7.30
2018-02-22T11:57:25.439Z,7.87
2018-02-22T11:59:53.113Z,8.20
2018-02-22T12:02:22.092Z,6.85
2018-02-22T12:04:50.566Z,6.87
2018-02-22T12:07:18.199Z,7.70
2018-02-22T12:09:45.890Z,7.05
2018-02-22T12:12:13.574Z,6.97
2018-02-22T12:14:42.002Z,8.53
2018-02-22T12:17:09.636Z,8.93
2018-02-22T12:19:37.302Z,7.10
2018-02-22T12:22:05.735Z,8.20
2018-02-22T12:24:33.415Z,7.50
2018-02-22T12:27:01.085Z,7.30
2018-02-22T12:29:29.555Z,7.93
2018-02-22T12:31:57.160Z,8.02
2018-02-22T12:34:24.893Z,7.65
2018-02-22T12:36:52.508Z,7.82
2018-02-22T12:39:20.165Z,7.37
2018-02-22T12:41:48.712Z,6.80
2018-02-22T12:44:16.375Z,8.43
2018-02-22T12:46:44.036Z,7.32
2018-02-22T12:49:11.684Z,8.68
2018-02-22T12:51:40.157Z,8.10
2018-02-22T12:54:07.850Z,8.80
2018-02-22T12:56:35.533Z,7.30
2018-02-22T12:59:03.973Z,7.37
2018-02-22T13:01:31.648Z,6.57
2018-02-22T13:03:59.281Z,6.78
2018-02-22T13:06:27.746Z,6.12
2018-02-22T13:08:55.390Z,6.10
2018-02-22T13:11:23.064Z,6.07
2018-02-22T13:13:50.704Z,7.33
2018-02-22T13:16:18.393Z,7.62
2018-02-22T13:18:46.055Z,6.95
2018-02-22T13:21:13.675Z,6.12
2018-02-22T13:23:42.136Z,6.20
2018-02-22T13:26:09.825Z,6.27
2018-02-22T13:28:38.279Z,5.87
2018-02-22T13:31:05.965Z,4.07
2018-02-22T13:33:46.178Z,5.20
2018-02-22T13:36:13.881Z,5.63
2018-02-22T13:38:53.297Z,5.28
2018-02-22T13:41:21.104Z,6.67
2018-02-22T13:43:55.457Z,5.53
2018-02-22T13:46:23.248Z,4.97
2018-02-22T13:49:02.612Z,5.43
2018-02-22T13:51:31.065Z,6.28
2018-02-22T13:53:58.778Z,5.37
2018-02-22T13:56:38.910Z,4.68
2018-02-22T13:59:06.595Z,5.32
2018-02-22T14:01:46.950Z,4.95
2018-02-22T14:04:14.612Z,5.53
2018-02-22T14:06:43.122Z,5.53
2018-02-22T14:09:11.509Z,5.68
2018-02-22T14:11:39.306Z,4.87
2018-02-22T14:14:06.949Z,4.35
2018-02-22T14:16:34.570Z,5.53
2018-02-22T14:19:02.386Z,4.47
2018-02-22T14:21:30.039Z,5.13
2018-02-22T14:23:57.724Z,4.78
2018-02-22T14:26:25.533Z,4.25
2018-02-22T14:28:53.202Z,3.92
2018-02-22T14:31:20.880Z,5.43
2018-02-22T14:33:48.557Z,4.10
2018-02-22T14:36:16.340Z,4.82
2018-02-22T14:38:44.724Z,4.62
2018-02-22T14:41:12.448Z,3.83
2018-02-22T14:43:40.128Z,4.20
2018-02-22T14:46:08.604Z,3.60
2018-02-22T14:48:36.288Z,3.55
2018-02-22T14:51:04.755Z,4.05
2018-02-22T14:53:32.482Z,6.10
2018-02-22T14:56:00.138Z,3.70
2018-02-22T14:58:27.783Z,4.18
2018-02-22T15:01:01.921Z,4.20
2018-02-22T15:03:29.604Z,3.58
2018-02-22T15:05:57.291Z,4.53
2018-02-22T15:08:24.932Z,4.32
2018-02-22T15:10:52.628Z,4.07
2018-02-22T15:13:20.327Z,4.75
2018-02-22T15:15:48.750Z,5.00
2018-02-22T15:18:16.472Z,4.12
2018-02-22T15:20:44.225Z,4.25
2018-02-22T15:23:11.941Z,6.12
2018-02-22T15:25:39.582Z,5.20
2018-02-22T15:28:08.943Z,6.07
2018-02-22T15:30:37.219Z,5.47
2018-02-22T15:33:04.900Z,5.37
2018-02-22T15:35:32.712Z,6.60
2018-02-22T15:38:00.366Z,6.32
2018-02-22T15:40:28.764Z,5.10
2018-02-22T15:42:57.199Z,6.22
2018-02-22T15:45:24.855Z,5.30
2018-02-22T15:47:53.296Z,4.95
2018-02-22T15:50:21.721Z,5.37
2018-02-22T15:52:49.378Z,5.40
2018-02-22T15:55:17.040Z,5.00
2018-02-22T15:57:44.799Z,4.78
2018-02-22T16:00:12.492Z,4.73
2018-02-22T16:02:40.250Z,4.97
2018-02-22T16:05:07.981Z,4.68
2018-02-22T16:07:36.394Z,6.72
2018-02-22T16:10:04.109Z,4.77
2018-02-22T16:12:32.019Z,4.93
2018-02-22T16:14:59.797Z,6.10
2018-02-22T16:17:27.437Z,5.15
2018-02-22T16:19:55.357Z,4.40
2018-02-22T16:22:22.984Z,4.55
2018-02-22T16:24:51.837Z,4.50
2018-02-22T16:27:19.513Z,5.85
2018-02-22T16:29:47.163Z,4.57
2018-02-22T16:32:14.869Z,5.60
2018-02-22T16:34:43.961Z,4.72
2018-02-22T16:37:11.611Z,6.33
2018-02-22T16:39:39.290Z,5.93
2018-02-22T16:42:06.943Z,4.45
2018-02-22T16:44:34.645Z,5.53
2018-02-22T16:47:03.107Z,5.47
2018-02-22T16:49:30.830Z,4.43
2018-02-22T16:51:58.495Z,4.53
2018-02-22T16:54:26.186Z,4.32
2018-02-22T16:56:53.845Z,5.37
2018-02-22T16:59:21.526Z,4.75
2018-02-22T17:01:49.232Z,6.22
2018-02-22T17:04:17.663Z,4.18
2018-02-22T17:06:45.358Z,5.82
2018-02-22T17:09:13.928Z,4.60
2018-02-22T17:11:41.598Z,4.80
2018-02-22T17:14:09.558Z,4.47
2018-02-22T17:16:37.238Z,5.15
2018-02-22T17:19:04.937Z,5.10
2018-02-22T17:21:32.626Z,4.95
2018-02-22T17:24:01.120Z,4.40
2018-02-22T17:26:35.279Z,4.68
2018-02-22T17:29:08.732Z,5.00
2018-02-22T17:31:42.871Z,4.62
2018-02-22T17:34:10.533Z,4.72
2018-02-22T17:39:45.508Z,5.03
2018-02-22T17:42:13.721Z,4.28
2018-02-22T17:44:41.646Z,5.13
2018-02-22T17:47:10.309Z,4.95
2018-02-22T17:49:37.966Z,5.63
2018-02-22T17:52:06.695Z,4.00
2018-02-22T17:54:34.422Z,5.75
2018-02-22T17:57:02.120Z,5.15
2018-02-22T17:59:29.747Z,4.47
2018-02-22T18:01:57.439Z,4.47
2018-02-22T18:04:25.140Z,4.57
2018-02-22T18:06:53.183Z,6.10
2018-02-22T18:09:20.903Z,5.10
2018-02-22T18:11:48.546Z,5.00
2018-02-22T18:14:17.066Z,7.32
2018-02-22T18:16:44.722Z,8.30
2018-02-22T18:19:13.432Z,4.47
2018-02-22T18:21:41.165Z,4.53
2018-02-22T18:24:09.769Z,5.03
2018-02-22T18:26:37.406Z,5.07
2018-02-22T18:29:05.167Z,5.70
2018-02-22T18:31:32.833Z,6.00
2018-02-22T18:34:00.517Z,4.75
2018-02-22T18:36:28.194Z,4.80
2018-02-22T18:39:01.644Z,5.18
2018-02-22T18:41:29.427Z,4.80
2018-02-22T18:44:02.875Z,5.03
2018-02-22T18:46:30.710Z,5.32
2018-02-22T18:48:58.369Z,4.97
2018-02-22T18:51:26.033Z,4.93
2018-02-22T18:53:53.737Z,4.40
2018-02-22T18:56:21.397Z,4.28
2018-02-22T18:58:49.028Z,4.25
2018-02-22T19:01:16.681Z,4.18
2018-02-22T19:03:45.163Z,4.12
2018-02-22T19:06:13.645Z,4.37
2018-02-22T19:08:42.071Z,4.60
2018-02-22T19:11:09.807Z,4.03
2018-02-22T19:13:37.470Z,4.37
2018-02-22T19:16:05.921Z,4.32
2018-02-22T19:18:33.660Z,3.90
2018-02-22T19:21:01.314Z,4.40
2018-02-22T19:23:28.957Z,4.37
2018-02-22T19:25:57.414Z,4.25
2018-02-22T19:28:25.072Z,4.50
2018-02-22T19:30:52.732Z,4.60
2018-02-22T19:33:20.396Z,4.80
2018-02-22T19:35:48.096Z,5.10
2018-02-22T19:38:16.567Z,5.32
2018-02-22T19:40:44.354Z,5.18
2018-02-22T19:43:12.057Z,5.18
2018-02-22T19:45:39.699Z,5.05
2018-02-22T19:48:08.139Z,4.90
2018-02-22T19:50:36.132Z,4.93
2018-02-22T19:53:03.866Z,5.00
2018-02-22T19:55:31.533Z,4.80
2018-02-22T19:57:59.214Z,4.78
2018-02-22T20:00:26.907Z,4.85
2018-02-22T20:02:54.581Z,4.82
2018-02-22T20:05:22.657Z,4.70
2018-02-22T20:07:51.093Z,5.00
2018-02-22T20:10:19.740Z,5.25
2018-02-22T20:12:47.439Z,5.05
2018-02-22T20:15:16.556Z,5.55
2018-02-22T20:17:44.574Z,5.00
2018-02-22T20:20:13.021Z,5.25
2018-02-22T20:22:40.690Z,4.80
2018-02-22T20:25:08.588Z,4.68
2018-02-22T20:27:36.294Z,6.03
2018-02-22T20:30:03.979Z,5.85
2018-02-22T20:32:31.705Z,6.00
2018-02-22T20:34:59.376Z,5.82
2018-02-22T20:37:27.059Z,6.95
2018-02-22T20:39:55.518Z,6.53
2018-02-22T20:42:23.915Z,6.90
2018-02-22T20:44:51.593Z,6.68
2018-02-22T20:47:19.240Z,7.15
2018-02-22T20:49:46.927Z,6.23
2018-02-22T20:52:14.583Z,6.37
2018-02-22T20:54:42.530Z,7.18
2018-02-22T20:57:11.331Z,9.52
2018-02-22T20:59:40.938Z,7.35
2018-02-22T21:02:08.560Z,8.03
2018-02-22T21:04:36.990Z,6.82
2018-02-22T21:07:04.634Z,6.57
2018-02-22T21:09:32.283Z,7.40
2018-02-22T21:12:00.721Z,6.12
2018-02-22T21:14:28.403Z,6.50
2018-02-22T21:16:56.065Z,7.17
2018-02-22T21:19:23.663Z,5.50
2018-02-22T21:21:52.106Z,6.18
2018-02-22T21:24:19.788Z,6.03
2018-02-22T21:26:47.468Z,6.12
2018-02-22T21:29:15.171Z,5.55
2018-02-22T21:31:42.797Z,5.65
2018-02-22T21:34:10.817Z,5.55
2018-02-22T21:36:38.487Z,5.68
2018-02-22T21:39:06.143Z,5.78
2018-02-22T21:41:33.839Z,5.85
2018-02-22T21:44:01.512Z,5.85
2018-02-22T21:46:30.583Z,6.18
2018-02-22T21:48:58.251Z,5.43
2018-02-22T21:51:25.892Z,6.30
2018-02-22T21:53:55.055Z,7.60
2018-02-22T21:56:22.708Z,5.35
2018-02-22T21:58:50.347Z,5.37
2018-02-22T22:01:18.016Z,6.87
2018-02-22T22:03:45.671Z,5.62
2018-02-22T22:06:14.016Z,5.95
2018-02-22T22:08:41.631Z,6.83
2018-02-22T22:11:09.332Z,6.40
2018-02-22T22:13:37.023Z,6.78
2018-02-22T22:16:04.688Z,7.40
2018-02-22T22:18:32.351Z,7.12
2018-02-22T22:21:00.743Z,8.82
2018-02-22T22:23:29.151Z,7.87
2018-02-22T22:25:57.582Z,7.13
2018-02-22T22:28:25.235Z,9.35
2018-02-22T22:30:52.911Z,7.28
2018-02-22T22:33:20.565Z,9.68
2018-02-22T22:35:48.225Z,7.20
2018-02-22T22:38:15.875Z,7.35
2018-02-22T22:40:43.658Z,6.40
2018-02-22T22:43:11.363Z,8.60
2018-02-22T22:45:39.121Z,7.22
2018-02-22T22:48:06.768Z,7.15
2018-02-22T22:50:34.398Z,6.95
2018-02-22T22:53:02.140Z,8.23
2018-02-22T22:55:29.830Z,6.55
2018-02-22T22:57:57.470Z,8.35
2018-02-22T23:00:25.149Z,7.43
2018-02-22T23:02:52.815Z,7.37
2018-02-22T23:05:20.468Z,6.97
2018-02-22T23:07:48.132Z,7.60
2018-02-22T23:10:15.829Z,7.50
2018-02-22T23:12:43.457Z,6.97
2018-02-22T23:15:11.109Z,7.93
2018-02-22T23:17:38.786Z,6.60
2018-02-22T23:20:06.479Z,7.18
2018-02-22T23:22:34.136Z,6.72
2018-02-22T23:25:02.458Z,8.07
2018-02-22T23:27:30.894Z,6.30
2018-02-22T23:29:58.535Z,7.85
2018-02-22T23:32:26.180Z,6.95
2018-02-22T23:34:54.655Z,6.82
2018-02-22T23:37:22.317Z,8.10
2018-02-22T23:39:49.968Z,8.98
2018-02-22T23:42:21.132Z,7.05
2018-02-22T23:44:49.562Z,6.03
2018-02-22T23:47:17.226Z,7.50
2018-02-22T23:49:44.884Z,7.95
2018-02-22T23:52:12.588Z,9.10
2018-02-22T23:54:40.229Z,8.20
2018-02-22T23:57:08.087Z,8.05
2018-02-22T23:59:35.789Z,7.35
